sensor_id;sensor_type;location;lat;lon;timestamp;P1;durP1;ratioP1;P2;durP2;ratioP2
57329;SDS011;43163;51.032;18.280;2023-04-09T00:07:32;44.50;;;24.40;;
57329;SDS011;43163;51.032;18.280;2023-04-09T00:17:21;45.50;;;23.40;;
57329;SDS011;43163;51.032;18.280;2023-04-09T00:27:10;64.80;;;21.50;;
57329;SDS011;43163;51.032;18.280;2023-04-09T00:36:58;39.90;;;22.20;;
57329;SDS011;43163;51.032;18.280;2023-04-09T00:46:55;53.10;;;22.80;;
57329;SDS011;43163;51.032;18.280;2023-04-09T00:56:46;49.20;;;26.60;;
57329;SDS011;43163;51.032;18.280;2023-04-09T01:06:39;36.40;;;21.50;;
57329;SDS011;43163;51.032;18.280;2023-04-09T01:17:45;43.10;;;21.00;;
57329;SDS011;43163;51.032;18.280;2023-04-09T01:28:17;38.00;;;19.00;;
57329;SDS011;43163;51.032;18.280;2023-04-09T01:38:09;30.00;;;15.60;;
57329;SDS011;43163;51.032;18.280;2023-04-09T01:47:58;24.40;;;14.70;;
57329;SDS011;43163;51.032;18.280;2023-04-09T01:57:46;20.20;;;12.10;;
57329;SDS011;43163;51.032;18.280;2023-04-09T02:07:44;18.40;;;6.50;;
57329;SDS011;43163;51.032;18.280;2023-04-09T02:17:35;27.10;;;14.50;;
57329;SDS011;43163;51.032;18.280;2023-04-09T02:27:23;31.70;;;12.50;;
57329;SDS011;43163;51.032;18.280;2023-04-09T02:37:11;23.90;;;12.90;;
57329;SDS011;43163;51.032;18.280;2023-04-09T02:47:00;22.90;;;12.30;;
57329;SDS011;43163;51.032;18.280;2023-04-09T02:56:50;20.00;;;11.20;;
57329;SDS011;43163;51.032;18.280;2023-04-09T03:06:38;20.00;;;11.00;;
57329;SDS011;43163;51.032;18.280;2023-04-09T03:16:26;27.40;;;14.40;;
57329;SDS011;43163;51.032;18.280;2023-04-09T03:26:15;42.90;;;19.40;;
57329;SDS011;43163;51.032;18.280;2023-04-09T03:36:02;26.80;;;15.40;;
57329;SDS011;43163;51.032;18.280;2023-04-09T03:45:51;26.60;;;14.90;;
57329;SDS011;43163;51.032;18.280;2023-04-09T03:55:40;30.40;;;16.10;;
57329;SDS011;43163;51.032;18.280;2023-04-09T04:05:28;39.90;;;22.30;;
57329;SDS011;43163;51.032;18.280;2023-04-09T04:15:16;32.70;;;16.70;;
57329;SDS011;43163;51.032;18.280;2023-04-09T04:25:06;44.60;;;18.30;;
57329;SDS011;43163;51.032;18.280;2023-04-09T04:34:55;48.20;;;22.60;;
57329;SDS011;43163;51.032;18.280;2023-04-09T05:27:02;28.70;;;17.60;;
57329;SDS011;43163;51.032;18.280;2023-04-09T05:36:50;42.70;;;21.90;;
57329;SDS011;43163;51.032;18.280;2023-04-09T05:46:39;40.80;;;19.00;;
57329;SDS011;43163;51.032;18.280;2023-04-09T05:56:28;41.40;;;19.50;;
57329;SDS011;43163;51.032;18.280;2023-04-09T06:06:17;45.40;;;20.00;;
57329;SDS011;43163;51.032;18.280;2023-04-09T06:16:06;60.20;;;27.80;;
57329;SDS011;43163;51.032;18.280;2023-04-09T06:25:57;127.10;;;46.30;;
57329;SDS011;43163;51.032;18.280;2023-04-09T06:35:47;45.20;;;22.50;;
57329;SDS011;43163;51.032;18.280;2023-04-09T06:45:36;47.90;;;22.30;;
57329;SDS011;43163;51.032;18.280;2023-04-09T06:55:25;54.10;;;25.40;;
57329;SDS011;43163;51.032;18.280;2023-04-09T07:05:15;63.20;;;28.80;;
57329;SDS011;43163;51.032;18.280;2023-04-09T07:15:05;50.60;;;28.20;;
57329;SDS011;43163;51.032;18.280;2023-04-09T07:24:59;43.90;;;22.90;;
57329;SDS011;43163;51.032;18.280;2023-04-09T07:34:52;51.10;;;23.90;;
57329;SDS011;43163;51.032;18.280;2023-04-09T07:42:15;70.00;;;41.30;;
57329;SDS011;43163;51.032;18.280;2023-04-09T07:52:05;57.00;;;30.60;;
57329;SDS011;43163;51.032;18.280;2023-04-09T08:01:55;56.10;;;27.90;;
57329;SDS011;43163;51.032;18.280;2023-04-09T08:11:45;50.30;;;27.90;;
57329;SDS011;43163;51.032;18.280;2023-04-09T08:21:38;60.90;;;31.90;;
57329;SDS011;43163;51.032;18.280;2023-04-09T08:31:32;42.50;;;24.50;;
57329;SDS011;43163;51.032;18.280;2023-04-09T08:41:22;44.90;;;25.10;;
57329;SDS011;43163;51.032;18.280;2023-04-09T08:51:18;80.70;;;42.60;;
57329;SDS011;43163;51.032;18.280;2023-04-09T09:01:24;39.80;;;24.80;;
57329;SDS011;43163;51.032;18.280;2023-04-09T09:11:37;50.20;;;27.40;;
57329;SDS011;43163;51.032;18.280;2023-04-09T09:21:28;48.70;;;25.90;;
57329;SDS011;43163;51.032;18.280;2023-04-09T09:31:19;48.50;;;24.00;;
57329;SDS011;43163;51.032;18.280;2023-04-09T09:41:41;55.40;;;26.80;;
57329;SDS011;43163;51.032;18.280;2023-04-09T09:51:32;42.40;;;20.90;;
57329;SDS011;43163;51.032;18.280;2023-04-09T10:01:55;48.00;;;25.50;;
57329;SDS011;43163;51.032;18.280;2023-04-09T10:11:50;40.70;;;23.40;;
57329;SDS011;43163;51.032;18.280;2023-04-09T10:32:22;45.70;;;27.00;;
57329;SDS011;43163;51.032;18.280;2023-04-09T11:30:19;58.40;;;31.40;;
57329;SDS011;43163;51.032;18.280;2023-04-09T11:50:15;57.00;;;30.10;;
57329;SDS011;43163;51.032;18.280;2023-04-09T12:00:16;59.00;;;29.50;;
57329;SDS011;43163;51.032;18.280;2023-04-09T12:10:16;47.30;;;27.70;;
57329;SDS011;43163;51.032;18.280;2023-04-09T12:20:28;63.20;;;35.10;;
57329;SDS011;43163;51.032;18.280;2023-04-09T12:30:24;46.30;;;26.30;;
57329;SDS011;43163;51.032;18.280;2023-04-09T12:40:15;46.80;;;27.60;;
57329;SDS011;43163;51.032;18.280;2023-04-09T12:50:06;51.90;;;28.90;;
57329;SDS011;43163;51.032;18.280;2023-04-09T12:59:56;50.00;;;31.60;;
57329;SDS011;43163;51.032;18.280;2023-04-09T13:09:46;39.00;;;24.80;;
57329;SDS011;43163;51.032;18.280;2023-04-09T13:19:38;54.50;;;27.60;;
57329;SDS011;43163;51.032;18.280;2023-04-09T13:29:29;51.60;;;27.70;;
57329;SDS011;43163;51.032;18.280;2023-04-09T13:39:19;54.90;;;26.80;;
57329;SDS011;43163;51.032;18.280;2023-04-09T13:49:08;49.90;;;24.40;;
57329;SDS011;43163;51.032;18.280;2023-04-09T13:58:57;57.40;;;29.60;;
57329;SDS011;43163;51.032;18.280;2023-04-09T14:08:48;56.40;;;29.40;;
57329;SDS011;43163;51.032;18.280;2023-04-09T14:18:36;50.00;;;27.50;;
57329;SDS011;43163;51.032;18.280;2023-04-09T14:28:28;39.60;;;22.30;;
57329;SDS011;43163;51.032;18.280;2023-04-09T14:38:19;49.30;;;24.30;;
57329;SDS011;43163;51.032;18.280;2023-04-09T14:48:08;38.90;;;19.60;;
57329;SDS011;43163;51.032;18.280;2023-04-09T14:57:58;60.10;;;29.60;;
57329;SDS011;43163;51.032;18.280;2023-04-09T15:07:53;48.60;;;26.00;;
57329;SDS011;43163;51.032;18.280;2023-04-09T15:17:41;60.50;;;30.20;;
57329;SDS011;43163;51.032;18.280;2023-04-09T15:27:31;59.20;;;29.20;;
57329;SDS011;43163;51.032;18.280;2023-04-09T15:37:21;54.10;;;30.60;;
57329;SDS011;43163;51.032;18.280;2023-04-09T15:47:16;60.00;;;28.60;;
57329;SDS011;43163;51.032;18.280;2023-04-09T15:57:04;60.30;;;28.80;;
57329;SDS011;43163;51.032;18.280;2023-04-09T16:06:53;49.60;;;24.80;;
57329;SDS011;43163;51.032;18.280;2023-04-09T16:16:43;53.70;;;23.40;;
57329;SDS011;43163;51.032;18.280;2023-04-09T16:26:44;50.90;;;25.10;;
57329;SDS011;43163;51.032;18.280;2023-04-09T16:36:37;65.10;;;30.50;;
57329;SDS011;43163;51.032;18.280;2023-04-09T23:27:05;206.50;;;37.60;;
57329;SDS011;43163;51.032;18.280;2023-04-09T23:36:53;244.00;;;39.90;;
57329;SDS011;43163;51.032;18.280;2023-04-09T23:46:41;58.90;;;25.10;;
57329;SDS011;43163;51.032;18.280;2023-04-09T23:56:29;110.30;;;31.50;;
